Airfield :
LOGIN :

Register | Disclaimer

   EN    FR    IT 

 










Legend :    VFR   Marginal VFR   IFR   Intensive IFR   Very Intensive IFR
Visi :
Ceiling :
>= 8 km
>= 3000ft
5 to 8 km
1000 to 3000 ft
1500m to 5 km
500 to 1000 ft
800 to 1500m
200 to 500 ft
< 800m
< 200 ft
Symbols :   Thunderstorms  Fog  Heavy snow  Heavy precipitations  Wind > 20 kt
SIGMETs :     Misc.  Thunderstorms  Icing  Turbulence  Mountain Waves  Volcanic Ashes







- Airport Elevation : 778 ft
- IATA code : BRQ


LKTB - Brno-Turany

CURRENT METAR :
  • 232100Z 12016KT 9999 OVC024 10/07 Q1012 NOSIG

EXPIRED METARs :
  • 232030Z 12015KT 9999 BKN021 OVC025 10/07 Q1013 NOSIG
  • 232000Z 12014KT 9999 OVC022 10/07 Q1013 NOSIG
  • 231930Z 12016KT 9999 OVC021 10/07 Q1013 NOSIG
  • 231900Z 12017KT 9999 BKN021 OVC029 10/07 Q1013 NOSIG

TAF TAF LKTB
Valid from the 23 at 18:00 until the 25 at 00:00 UTC


231700Z 2318/2500 11014KT 9999 OVC017
TEMPO 2318/2500 14018G32KT
TEMPO 2318/2407 RA BKN012
BECMG 2416/2418 CAVOK
No reported NOTAMs for that airfield.



MET'MAP, your aeronautical weather chart ! - Copyright ORBIFLY December 2007 - Disclaimer

ORBIFLY MET'MAP TEAM :

Programming & Development : Alexandra Zaïnal
Concept & Development : Baudouin d'Aumeries
Co-Development & Prog : Marc-Olivier Méhu
Technical & hardware support : Manuel Goepfert

Contact : metmap@orbifly.com




SOURCES & CREDITS :

   NOAA